sensor_id;sensor_type;location;lat;lon;timestamp;temperature;humidity
2855;DHT22;1435;49.472;10.940;2023-07-13T00:01:30;23.10;93.80
2855;DHT22;1435;49.472;10.940;2023-07-13T00:06:32;23.00;94.10
2855;DHT22;1435;49.472;10.940;2023-07-13T00:11:35;23.10;94.10
2855;DHT22;1435;49.472;10.940;2023-07-13T00:16:39;23.00;94.00
2855;DHT22;1435;49.472;10.940;2023-07-13T00:21:44;23.00;93.90
2855;DHT22;1435;49.472;10.940;2023-07-13T00:26:46;23.00;93.90
2855;DHT22;1435;49.472;10.940;2023-07-13T00:31:49;23.00;94.00
2855;DHT22;1435;49.472;10.940;2023-07-13T00:36:50;22.90;94.00
2855;DHT22;1435;49.472;10.940;2023-07-13T00:41:52;22.90;94.30
2855;DHT22;1435;49.472;10.940;2023-07-13T00:46:55;22.90;94.00
2855;DHT22;1435;49.472;10.940;2023-07-13T00:52:01;22.90;94.00
2855;DHT22;1435;49.472;10.940;2023-07-13T00:57:06;22.80;94.00
2855;DHT22;1435;49.472;10.940;2023-07-13T01:02:10;22.80;94.00
2855;DHT22;1435;49.472;10.940;2023-07-13T01:07:13;22.70;94.10
2855;DHT22;1435;49.472;10.940;2023-07-13T01:12:15;22.70;94.00
2855;DHT22;1435;49.472;10.940;2023-07-13T01:17:18;22.70;94.00
2855;DHT22;1435;49.472;10.940;2023-07-13T01:22:21;22.70;93.90
2855;DHT22;1435;49.472;10.940;2023-07-13T01:27:26;22.50;93.90
2855;DHT22;1435;49.472;10.940;2023-07-13T01:32:28;22.50;94.00
2855;DHT22;1435;49.472;10.940;2023-07-13T01:37:33;22.50;94.10
2855;DHT22;1435;49.472;10.940;2023-07-13T01:42:36;22.40;94.00
2855;DHT22;1435;49.472;10.940;2023-07-13T01:47:38;22.40;94.00
2855;DHT22;1435;49.472;10.940;2023-07-13T01:52:41;22.40;94.00
2855;DHT22;1435;49.472;10.940;2023-07-13T01:57:43;22.30;94.10
2855;DHT22;1435;49.472;10.940;2023-07-13T02:02:44;22.30;94.00
2855;DHT22;1435;49.472;10.940;2023-07-13T02:07:47;22.30;94.10
2855;DHT22;1435;49.472;10.940;2023-07-13T02:12:49;22.20;94.20
2855;DHT22;1435;49.472;10.940;2023-07-13T02:17:52;22.10;93.90
2855;DHT22;1435;49.472;10.940;2023-07-13T02:22:55;22.00;93.80
2855;DHT22;1435;49.472;10.940;2023-07-13T02:27:56;21.90;93.80
2855;DHT22;1435;49.472;10.940;2023-07-13T02:32:58;21.90;93.70
2855;DHT22;1435;49.472;10.940;2023-07-13T02:38:01;21.80;93.70
2855;DHT22;1435;49.472;10.940;2023-07-13T02:43:03;21.70;93.60
2855;DHT22;1435;49.472;10.940;2023-07-13T02:48:05;21.70;93.80
2855;DHT22;1435;49.472;10.940;2023-07-13T02:53:08;21.60;93.60
2855;DHT22;1435;49.472;10.940;2023-07-13T02:58:09;21.60;93.70
2855;DHT22;1435;49.472;10.940;2023-07-13T03:03:11;21.40;93.70
2855;DHT22;1435;49.472;10.940;2023-07-13T03:08:14;21.40;93.80
2855;DHT22;1435;49.472;10.940;2023-07-13T03:13:16;21.30;93.80
2855;DHT22;1435;49.472;10.940;2023-07-13T03:18:18;21.20;93.80
2855;DHT22;1435;49.472;10.940;2023-07-13T03:23:21;21.10;93.80
2855;DHT22;1435;49.472;10.940;2023-07-13T03:28:23;21.10;93.70
2855;DHT22;1435;49.472;10.940;2023-07-13T03:33:25;21.00;93.60
2855;DHT22;1435;49.472;10.940;2023-07-13T03:38:28;21.00;93.60
2855;DHT22;1435;49.472;10.940;2023-07-13T03:43:30;20.80;93.50
2855;DHT22;1435;49.472;10.940;2023-07-13T03:48:31;20.80;93.40
2855;DHT22;1435;49.472;10.940;2023-07-13T03:53:37;20.70;93.40
2855;DHT22;1435;49.472;10.940;2023-07-13T03:58:40;20.60;93.40
2855;DHT22;1435;49.472;10.940;2023-07-13T04:03:43;20.50;93.50
2855;DHT22;1435;49.472;10.940;2023-07-13T04:08:47;20.40;93.60
2855;DHT22;1435;49.472;10.940;2023-07-13T04:13:50;20.40;93.60
2855;DHT22;1435;49.472;10.940;2023-07-13T04:18:52;20.40;93.70
2855;DHT22;1435;49.472;10.940;2023-07-13T04:23:57;20.40;93.70
2855;DHT22;1435;49.472;10.940;2023-07-13T04:28:58;20.40;93.60
2855;DHT22;1435;49.472;10.940;2023-07-13T04:34:00;20.40;93.70
2855;DHT22;1435;49.472;10.940;2023-07-13T04:39:04;20.40;93.70
2855;DHT22;1435;49.472;10.940;2023-07-13T04:44:07;20.30;93.70
2855;DHT22;1435;49.472;10.940;2023-07-13T04:49:09;20.30;93.80
2855;DHT22;1435;49.472;10.940;2023-07-13T04:54:12;20.00;93.90
2855;DHT22;1435;49.472;10.940;2023-07-13T04:59:14;19.80;94.20
2855;DHT22;1435;49.472;10.940;2023-07-13T05:04:16;19.70;94.60
2855;DHT22;1435;49.472;10.940;2023-07-13T05:09:19;19.80;94.50
2855;DHT22;1435;49.472;10.940;2023-07-13T05:14:21;19.90;94.50
2855;DHT22;1435;49.472;10.940;2023-07-13T05:19:23;19.90;94.40
2855;DHT22;1435;49.472;10.940;2023-07-13T05:24:26;20.00;94.40
2855;DHT22;1435;49.472;10.940;2023-07-13T05:29:27;20.00;94.60
2855;DHT22;1435;49.472;10.940;2023-07-13T05:34:29;20.00;94.40
2855;DHT22;1435;49.472;10.940;2023-07-13T05:39:32;20.00;94.50
2855;DHT22;1435;49.472;10.940;2023-07-13T05:44:34;20.00;94.30
2855;DHT22;1435;49.472;10.940;2023-07-13T05:49:35;20.00;94.10
2855;DHT22;1435;49.472;10.940;2023-07-13T05:54:38;20.00;94.30
2855;DHT22;1435;49.472;10.940;2023-07-13T05:59:40;20.20;93.80
2855;DHT22;1435;49.472;10.940;2023-07-13T06:04:42;20.00;93.70
2855;DHT22;1435;49.472;10.940;2023-07-13T06:09:45;20.00;94.00
2855;DHT22;1435;49.472;10.940;2023-07-13T06:14:46;20.00;94.00
2855;DHT22;1435;49.472;10.940;2023-07-13T06:19:48;20.10;94.20
2855;DHT22;1435;49.472;10.940;2023-07-13T06:24:52;20.20;94.10
2855;DHT22;1435;49.472;10.940;2023-07-13T06:29:53;20.20;94.30
2855;DHT22;1435;49.472;10.940;2023-07-13T06:34:55;20.20;94.10
2855;DHT22;1435;49.472;10.940;2023-07-13T06:39:58;20.30;94.20
2855;DHT22;1435;49.472;10.940;2023-07-13T06:45:00;20.30;93.60
2855;DHT22;1435;49.472;10.940;2023-07-13T06:50:01;20.30;93.30
2855;DHT22;1435;49.472;10.940;2023-07-13T06:55:05;20.40;93.50
2855;DHT22;1435;49.472;10.940;2023-07-13T07:00:08;20.40;93.90
2855;DHT22;1435;49.472;10.940;2023-07-13T07:05:10;20.40;94.00
2855;DHT22;1435;49.472;10.940;2023-07-13T07:10:13;20.40;93.60
2855;DHT22;1435;49.472;10.940;2023-07-13T07:15:15;20.50;93.80
2855;DHT22;1435;49.472;10.940;2023-07-13T07:20:17;20.60;93.70
2855;DHT22;1435;49.472;10.940;2023-07-13T07:25:20;20.70;93.60
2855;DHT22;1435;49.472;10.940;2023-07-13T07:30:21;20.70;93.10
2855;DHT22;1435;49.472;10.940;2023-07-13T07:35:23;20.80;93.30
2855;DHT22;1435;49.472;10.940;2023-07-13T07:40:26;20.80;93.00
2855;DHT22;1435;49.472;10.940;2023-07-13T07:45:28;20.90;92.60
2855;DHT22;1435;49.472;10.940;2023-07-13T07:50:30;20.90;92.50
2855;DHT22;1435;49.472;10.940;2023-07-13T07:55:34;20.90;92.20
2855;DHT22;1435;49.472;10.940;2023-07-13T08:00:36;21.00;92.20
2855;DHT22;1435;49.472;10.940;2023-07-13T08:05:38;21.10;91.90
2855;DHT22;1435;49.472;10.940;2023-07-13T08:10:41;21.10;90.90
2855;DHT22;1435;49.472;10.940;2023-07-13T08:15:42;21.20;90.30
2855;DHT22;1435;49.472;10.940;2023-07-13T08:20:44;21.20;90.30
2855;DHT22;1435;49.472;10.940;2023-07-13T08:25:52;21.30;88.40
2855;DHT22;1435;49.472;10.940;2023-07-13T08:30:53;21.30;89.80
2855;DHT22;1435;49.472;10.940;2023-07-13T08:35:55;21.40;87.20
2855;DHT22;1435;49.472;10.940;2023-07-13T08:40:58;21.40;87.40
2855;DHT22;1435;49.472;10.940;2023-07-13T08:46:04;21.50;88.00
2855;DHT22;1435;49.472;10.940;2023-07-13T08:51:24;21.60;83.50
2855;DHT22;1435;49.472;10.940;2023-07-13T08:56:31;21.70;83.60
2855;DHT22;1435;49.472;10.940;2023-07-13T09:01:51;21.70;83.30
2855;DHT22;1435;49.472;10.940;2023-07-13T09:07:00;21.80;82.20
2855;DHT22;1435;49.472;10.940;2023-07-13T09:12:13;21.80;80.50
2855;DHT22;1435;49.472;10.940;2023-07-13T09:17:19;21.90;81.40
2855;DHT22;1435;49.472;10.940;2023-07-13T09:22:24;21.90;77.70
2855;DHT22;1435;49.472;10.940;2023-07-13T09:27:33;21.90;78.60
2855;DHT22;1435;49.472;10.940;2023-07-13T09:32:37;22.00;76.40
2855;DHT22;1435;49.472;10.940;2023-07-13T09:37:39;22.00;76.30
2855;DHT22;1435;49.472;10.940;2023-07-13T09:42:43;22.10;72.70
2855;DHT22;1435;49.472;10.940;2023-07-13T09:47:44;22.20;71.10
2855;DHT22;1435;49.472;10.940;2023-07-13T09:52:48;22.30;70.80
2855;DHT22;1435;49.472;10.940;2023-07-13T09:57:51;22.30;71.90
2855;DHT22;1435;49.472;10.940;2023-07-13T10:03:02;22.40;72.40
2855;DHT22;1435;49.472;10.940;2023-07-13T10:08:04;22.40;72.30
2855;DHT22;1435;49.472;10.940;2023-07-13T10:18:43;22.60;72.80
2855;DHT22;1435;49.472;10.940;2023-07-13T10:23:50;22.70;73.60
2855;DHT22;1435;49.472;10.940;2023-07-13T10:28:56;22.80;72.00
2855;DHT22;1435;49.472;10.940;2023-07-13T10:33:59;22.80;70.70
2855;DHT22;1435;49.472;10.940;2023-07-13T10:39:03;22.80;71.80
2855;DHT22;1435;49.472;10.940;2023-07-13T10:44:18;22.90;71.60
2855;DHT22;1435;49.472;10.940;2023-07-13T10:49:22;23.00;75.20
2855;DHT22;1435;49.472;10.940;2023-07-13T10:54:27;23.10;71.90
2855;DHT22;1435;49.472;10.940;2023-07-13T10:59:36;23.10;72.50
2855;DHT22;1435;49.472;10.940;2023-07-13T11:04:44;23.00;72.10
2855;DHT22;1435;49.472;10.940;2023-07-13T11:09:52;22.90;72.00
2855;DHT22;1435;49.472;10.940;2023-07-13T11:15:10;23.10;73.40
2855;DHT22;1435;49.472;10.940;2023-07-13T11:20:30;23.10;71.60
2855;DHT22;1435;49.472;10.940;2023-07-13T11:25:34;23.20;73.10
2855;DHT22;1435;49.472;10.940;2023-07-13T11:30:40;23.40;70.80
2855;DHT22;1435;49.472;10.940;2023-07-13T11:35:53;23.50;70.40
2855;DHT22;1435;49.472;10.940;2023-07-13T11:41:02;23.60;69.50
2855;DHT22;1435;49.472;10.940;2023-07-13T11:46:19;23.60;69.70
2855;DHT22;1435;49.472;10.940;2023-07-13T11:51:25;23.70;72.00
2855;DHT22;1435;49.472;10.940;2023-07-13T11:56:29;23.70;73.10
2855;DHT22;1435;49.472;10.940;2023-07-13T12:01:36;23.70;72.70
2855;DHT22;1435;49.472;10.940;2023-07-13T12:06:43;23.80;73.60
2855;DHT22;1435;49.472;10.940;2023-07-13T12:11:45;23.80;71.80
2855;DHT22;1435;49.472;10.940;2023-07-13T12:16:48;23.90;73.00
2855;DHT22;1435;49.472;10.940;2023-07-13T12:21:52;23.80;70.90
2855;DHT22;1435;49.472;10.940;2023-07-13T12:26:59;23.80;71.80
2855;DHT22;1435;49.472;10.940;2023-07-13T12:32:08;23.90;73.00
2855;DHT22;1435;49.472;10.940;2023-07-13T12:37:12;23.90;72.80
2855;DHT22;1435;49.472;10.940;2023-07-13T12:42:20;24.00;72.00
2855;DHT22;1435;49.472;10.940;2023-07-13T12:47:26;24.00;70.70
2855;DHT22;1435;49.472;10.940;2023-07-13T12:52:29;24.10;70.70
2855;DHT22;1435;49.472;10.940;2023-07-13T12:57:38;24.20;69.70
2855;DHT22;1435;49.472;10.940;2023-07-13T13:02:42;24.10;69.50
2855;DHT22;1435;49.472;10.940;2023-07-13T13:07:43;24.20;70.50
2855;DHT22;1435;49.472;10.940;2023-07-13T13:12:46;24.20;71.70
2855;DHT22;1435;49.472;10.940;2023-07-13T13:17:50;24.30;72.20
2855;DHT22;1435;49.472;10.940;2023-07-13T13:22:51;24.30;71.70
2855;DHT22;1435;49.472;10.940;2023-07-13T13:27:54;24.40;70.50
2855;DHT22;1435;49.472;10.940;2023-07-13T13:32:57;24.40;71.60
2855;DHT22;1435;49.472;10.940;2023-07-13T13:37:59;24.40;69.90
2855;DHT22;1435;49.472;10.940;2023-07-13T13:43:01;24.40;69.70
2855;DHT22;1435;49.472;10.940;2023-07-13T13:48:04;24.40;70.30
2855;DHT22;1435;49.472;10.940;2023-07-13T13:53:10;24.40;68.90
2855;DHT22;1435;49.472;10.940;2023-07-13T13:58:12;24.40;69.90
2855;DHT22;1435;49.472;10.940;2023-07-13T14:03:17;24.50;68.40
2855;DHT22;1435;49.472;10.940;2023-07-13T14:08:21;24.50;66.30
2855;DHT22;1435;49.472;10.940;2023-07-13T14:13:26;24.50;67.00
2855;DHT22;1435;49.472;10.940;2023-07-13T14:18:30;24.60;67.90
2855;DHT22;1435;49.472;10.940;2023-07-13T14:23:31;24.70;65.30
2855;DHT22;1435;49.472;10.940;2023-07-13T14:28:33;24.90;65.30
2855;DHT22;1435;49.472;10.940;2023-07-13T14:33:37;25.00;65.40
2855;DHT22;1435;49.472;10.940;2023-07-13T14:38:39;25.20;63.90
2855;DHT22;1435;49.472;10.940;2023-07-13T14:43:41;25.30;63.20
2855;DHT22;1435;49.472;10.940;2023-07-13T14:48:44;25.40;63.90
2855;DHT22;1435;49.472;10.940;2023-07-13T14:53:46;25.50;62.80
2855;DHT22;1435;49.472;10.940;2023-07-13T14:58:47;25.40;62.20
2855;DHT22;1435;49.472;10.940;2023-07-13T15:03:52;25.30;63.50
2855;DHT22;1435;49.472;10.940;2023-07-13T15:08:54;25.40;63.00
2855;DHT22;1435;49.472;10.940;2023-07-13T15:13:56;25.50;64.20
2855;DHT22;1435;49.472;10.940;2023-07-13T15:18:59;25.60;62.50
2855;DHT22;1435;49.472;10.940;2023-07-13T15:24:03;25.70;63.30
2855;DHT22;1435;49.472;10.940;2023-07-13T15:29:08;25.70;61.70
2855;DHT22;1435;49.472;10.940;2023-07-13T15:34:14;25.80;61.70
2855;DHT22;1435;49.472;10.940;2023-07-13T15:39:17;25.70;61.90
2855;DHT22;1435;49.472;10.940;2023-07-13T15:44:27;25.80;62.60
2855;DHT22;1435;49.472;10.940;2023-07-13T15:49:31;25.80;62.10
2855;DHT22;1435;49.472;10.940;2023-07-13T15:54:33;25.70;63.10
2855;DHT22;1435;49.472;10.940;2023-07-13T15:59:34;25.70;63.60
2855;DHT22;1435;49.472;10.940;2023-07-13T16:04:38;25.70;62.80
2855;DHT22;1435;49.472;10.940;2023-07-13T16:09:40;25.70;63.10
2855;DHT22;1435;49.472;10.940;2023-07-13T16:14:43;25.70;63.00
2855;DHT22;1435;49.472;10.940;2023-07-13T16:19:46;25.60;61.60
2855;DHT22;1435;49.472;10.940;2023-07-13T16:24:48;25.70;62.20
2855;DHT22;1435;49.472;10.940;2023-07-13T16:29:55;25.90;62.20
2855;DHT22;1435;49.472;10.940;2023-07-13T16:34:59;26.00;60.40
2855;DHT22;1435;49.472;10.940;2023-07-13T16:40:00;26.00;60.20
2855;DHT22;1435;49.472;10.940;2023-07-13T16:45:11;25.90;59.90
2855;DHT22;1435;49.472;10.940;2023-07-13T16:50:17;25.90;59.80
2855;DHT22;1435;49.472;10.940;2023-07-13T16:55:21;26.00;61.10
2855;DHT22;1435;49.472;10.940;2023-07-13T17:00:29;26.40;61.90
2855;DHT22;1435;49.472;10.940;2023-07-13T17:05:35;26.60;60.80
2855;DHT22;1435;49.472;10.940;2023-07-13T17:10:41;26.80;59.70
2855;DHT22;1435;49.472;10.940;2023-07-13T17:15:45;26.80;60.20
2855;DHT22;1435;49.472;10.940;2023-07-13T17:20:50;26.70;59.50
2855;DHT22;1435;49.472;10.940;2023-07-13T17:25:53;26.80;59.70
2855;DHT22;1435;49.472;10.940;2023-07-13T17:30:58;26.80;60.60
2855;DHT22;1435;49.472;10.940;2023-07-13T17:36:04;26.70;60.00
2855;DHT22;1435;49.472;10.940;2023-07-13T17:41:07;26.70;60.10
2855;DHT22;1435;49.472;10.940;2023-07-13T17:46:11;26.70;59.00
2855;DHT22;1435;49.472;10.940;2023-07-13T17:51:16;26.80;59.20
2855;DHT22;1435;49.472;10.940;2023-07-13T17:56:22;27.00;59.40
2855;DHT22;1435;49.472;10.940;2023-07-13T18:01:26;27.00;58.30
2855;DHT22;1435;49.472;10.940;2023-07-13T18:06:34;26.90;58.40
2855;DHT22;1435;49.472;10.940;2023-07-13T18:11:37;26.90;58.90
2855;DHT22;1435;49.472;10.940;2023-07-13T18:16:40;26.90;58.60
2855;DHT22;1435;49.472;10.940;2023-07-13T18:21:43;26.80;59.00
2855;DHT22;1435;49.472;10.940;2023-07-13T18:26:45;26.80;59.20
2855;DHT22;1435;49.472;10.940;2023-07-13T18:31:47;26.70;60.10
2855;DHT22;1435;49.472;10.940;2023-07-13T18:36:50;26.50;60.10
2855;DHT22;1435;49.472;10.940;2023-07-13T18:41:52;26.40;61.30
2855;DHT22;1435;49.472;10.940;2023-07-13T18:46:55;26.20;62.90
2855;DHT22;1435;49.472;10.940;2023-07-13T18:51:58;26.00;64.40
2855;DHT22;1435;49.472;10.940;2023-07-13T18:56:59;25.80;66.10
2855;DHT22;1435;49.472;10.940;2023-07-13T19:02:01;25.70;66.90
2855;DHT22;1435;49.472;10.940;2023-07-13T19:07:08;25.50;69.40
2855;DHT22;1435;49.472;10.940;2023-07-13T19:12:16;25.30;69.40
2855;DHT22;1435;49.472;10.940;2023-07-13T19:17:19;25.10;71.20
2855;DHT22;1435;49.472;10.940;2023-07-13T19:22:22;24.90;71.00
2855;DHT22;1435;49.472;10.940;2023-07-13T19:27:24;24.70;71.00
2855;DHT22;1435;49.472;10.940;2023-07-13T19:32:26;24.50;70.50
2855;DHT22;1435;49.472;10.940;2023-07-13T19:37:29;24.30;71.30
2855;DHT22;1435;49.472;10.940;2023-07-13T19:42:31;24.10;72.20
2855;DHT22;1435;49.472;10.940;2023-07-13T19:47:33;24.00;73.50
2855;DHT22;1435;49.472;10.940;2023-07-13T19:52:44;23.90;72.60
2855;DHT22;1435;49.472;10.940;2023-07-13T19:57:46;23.70;73.20
2855;DHT22;1435;49.472;10.940;2023-07-13T20:02:49;23.60;73.40
2855;DHT22;1435;49.472;10.940;2023-07-13T20:07:55;23.50;73.00
2855;DHT22;1435;49.472;10.940;2023-07-13T20:12:58;23.30;72.40
2855;DHT22;1435;49.472;10.940;2023-07-13T20:18:00;23.30;73.30
2855;DHT22;1435;49.472;10.940;2023-07-13T20:23:11;23.20;73.70
2855;DHT22;1435;49.472;10.940;2023-07-13T20:28:14;23.10;74.40
2855;DHT22;1435;49.472;10.940;2023-07-13T20:33:18;23.00;74.90
2855;DHT22;1435;49.472;10.940;2023-07-13T20:38:23;22.90;75.50
2855;DHT22;1435;49.472;10.940;2023-07-13T20:43:26;22.80;76.30
2855;DHT22;1435;49.472;10.940;2023-07-13T20:48:34;22.70;76.70
2855;DHT22;1435;49.472;10.940;2023-07-13T20:53:38;22.60;77.30
2855;DHT22;1435;49.472;10.940;2023-07-13T20:58:40;22.50;77.70
2855;DHT22;1435;49.472;10.940;2023-07-13T21:03:42;22.40;77.50
2855;DHT22;1435;49.472;10.940;2023-07-13T21:08:46;22.30;78.00
2855;DHT22;1435;49.472;10.940;2023-07-13T21:13:48;22.20;79.70
2855;DHT22;1435;49.472;10.940;2023-07-13T21:18:50;22.20;79.60
2855;DHT22;1435;49.472;10.940;2023-07-13T21:23:54;22.10;79.70
2855;DHT22;1435;49.472;10.940;2023-07-13T21:28:56;22.00;80.20
2855;DHT22;1435;49.472;10.940;2023-07-13T21:33:59;21.90;80.40
2855;DHT22;1435;49.472;10.940;2023-07-13T21:39:05;21.80;81.00
2855;DHT22;1435;49.472;10.940;2023-07-13T21:44:19;21.80;81.40
2855;DHT22;1435;49.472;10.940;2023-07-13T21:49:23;21.70;81.80
2855;DHT22;1435;49.472;10.940;2023-07-13T21:54:26;21.70;82.40
2855;DHT22;1435;49.472;10.940;2023-07-13T21:59:28;21.60;82.70
2855;DHT22;1435;49.472;10.940;2023-07-13T22:04:30;21.60;83.10
2855;DHT22;1435;49.472;10.940;2023-07-13T22:09:33;21.50;83.60
2855;DHT22;1435;49.472;10.940;2023-07-13T22:14:35;21.50;83.80
2855;DHT22;1435;49.472;10.940;2023-07-13T22:19:36;21.40;84.20
2855;DHT22;1435;49.472;10.940;2023-07-13T22:24:39;21.40;84.30
2855;DHT22;1435;49.472;10.940;2023-07-13T22:29:41;21.30;84.30
2855;DHT22;1435;49.472;10.940;2023-07-13T22:34:43;21.30;84.90
2855;DHT22;1435;49.472;10.940;2023-07-13T22:39:46;21.20;84.80
2855;DHT22;1435;49.472;10.940;2023-07-13T22:44:48;21.20;85.20
2855;DHT22;1435;49.472;10.940;2023-07-13T22:49:51;21.10;85.40
2855;DHT22;1435;49.472;10.940;2023-07-13T22:54:54;21.10;85.70
2855;DHT22;1435;49.472;10.940;2023-07-13T22:59:58;21.00;86.00
2855;DHT22;1435;49.472;10.940;2023-07-13T23:05:00;20.90;86.20
2855;DHT22;1435;49.472;10.940;2023-07-13T23:10:14;20.90;86.60
2855;DHT22;1435;49.472;10.940;2023-07-13T23:15:18;20.80;87.20
2855;DHT22;1435;49.472;10.940;2023-07-13T23:20:23;20.80;86.80
2855;DHT22;1435;49.472;10.940;2023-07-13T23:25:30;20.70;86.80
2855;DHT22;1435;49.472;10.940;2023-07-13T23:30:33;20.60;87.20
2855;DHT22;1435;49.472;10.940;2023-07-13T23:35:35;20.60;87.40
2855;DHT22;1435;49.472;10.940;2023-07-13T23:40:39;20.50;87.40
2855;DHT22;1435;49.472;10.940;2023-07-13T23:45:41;20.40;87.80
2855;DHT22;1435;49.472;10.940;2023-07-13T23:50:43;20.40;88.30
2855;DHT22;1435;49.472;10.940;2023-07-13T23:55:47;20.30;88.30
